Main page
METAR-TAF:

METAR-TAF

Airports :

Euro, Netherlands

Oil platform

latitude: 51-59-52N, longitude: 3-16-30E, elevation: 18 m

Current weather observation

The report was made 41 minutes ago, at 01:25 UTC
Wind 14 kt from the Southwest with gusts up to 17 kt
Temperature 15°C
Humidity 82%
Pressure 994 hPa
Visibility 10 km or more

METAR: EHSA 290125Z AUTO 23014G17KT 9999 ///////// 15/12 Q0994 W17/H13

Time: 04:06 (02:06 UTC)


TAF: missing

Weather observations and forecasts of more than 4000 airports (METAR and TAF reports).

The available stations are represented by yellow and red dots on the map.

Hover mouse over dot to see the name of the station.

Then click to see weather observations and forecasts.

To change the map : click on the green buttons with a black cross to zoom in, on the green button with a dash to zoom out, or on the green arrows for adjacent maps.


METAR-TAF: